Hlavní strana
METAR-TAF:

METAR-TAF

Letiště :

Pantelleria, Itálie

zeměpisná šířka: 36-49N, zeměpisná délka: 011-58E, výška: 191 m

Aktuální stav počasí

Zpráva byla vytvořena před 33 minutami, v 18:50 UTC
Jihojihovýchodní vítr 17 kt
Teplota 13°C
Vlhkost vzduchu 77%
Tlak 1014 hPa
Viditelnost 10 km a více
Žádná oblačnost pod 1500 m, nevyskytují se cumulonimby.

METAR: LICG 221850Z 16017KT CAVOK 13/09 Q1014

Čas: 20:23 (19:23 UTC)

Předpověď počasí

Zpráva byla vytvořena před 2 hodinami a 23 minutami, v 17:00 UTC
Předpověď platná od 22 v 18 UTC do 23 v 03 UTC
Jihojihovýchodní vítr 16 kt
Viditelnost 10 km a více
Polojasno ve výšce 4000 ft
Změna
od 23 v 00 UTC do 23 v 02 UTC
Severozápadní vítr 16 kt
Dočasný
od 23 v 00 UTC do 23 v 03 UTC
déšť

TAF: LICG 221700Z 2218/2303 16016KT 9999 SCT040 BECMG 2300/2302 31016KT TEMPO 2300/2303 RA

Stav a předpovědi počasí z více než 4 000 letišť (zprávy METAR a TAF).

Červené a žluté tečky na mapě představují dostupné meteorologické stanice.

Když kurzor umístíte na tečku, zobrazí se název stanice.

Pak kliknutím zobrazíte stav a předpověď počasí.

Chcete-li změnit mapu, kliknutím na zelené tlačítko se znaménkem +mapu přiblížíte, kliknutím na zelené tlačítko se znaménkem – mapu oddálíte a kliknutím na zelené šipky přejdete na sousední mapy.


METAR-TAF: